Time;durP1;ratioP1;P1;durP2;ratioP2;P2;SDS_P1;SDS_P2;PMS_P1;PMS_P2;Temp;Humidity;BMP_temperature;BMP_pressure;BME280_temperature;BME280_humidity;BME280_pressure;Samples;Min_cycle;Max_cycle;Signal;HPM_P1;HPM_P2
2022/04/05 00:01:13;;;;;;;6.80;4.73;;;5.90;97.30;;;;;;4986408;28;20197;-85
2022/04/05 00:03:39;;;;;;;9.03;5.17;;;5.80;97.30;;;;;;4986822;28;20213;-85
2022/04/05 00:06:04;;;;;;;9.40;5.50;;;5.80;97.30;;;;;;4985108;28;20662;-86
2022/04/05 00:08:30;;;;;;;9.97;4.90;;;5.80;97.30;;;;;;4986967;28;20270;-86
2022/04/05 00:10:56;;;;;;;9.33;5.20;;;5.70;97.30;;;;;;4988744;28;20224;-87
2022/04/05 00:13:21;;;;;;;13.93;5.40;;;5.70;97.30;;;;;;4980149;28;20195;-87
2022/04/05 00:15:47;;;;;;;7.97;5.20;;;5.60;97.30;;;;;;4978239;28;20421;-86
2022/04/05 00:18:13;;;;;;;12.20;4.90;;;5.60;97.30;;;;;;4977192;28;20178;-87
2022/04/05 00:20:39;;;;;;;9.13;6.30;;;5.60;97.30;;;;;;4979531;28;20418;-86
2022/04/05 00:23:05;;;;;;;8.53;5.40;;;5.60;97.30;;;;;;4982693;28;20418;-85
2022/04/05 00:25:31;;;;;;;10.77;6.50;;;5.60;97.30;;;;;;4984844;28;20413;-85
2022/04/05 00:27:57;;;;;;;8.30;5.07;;;5.60;97.30;;;;;;4980563;28;20262;-87
2022/04/05 00:30:22;;;;;;;9.53;5.30;;;5.60;97.30;;;;;;4985333;28;20507;-84
2022/04/05 00:32:48;;;;;;;10.30;5.70;;;5.60;97.30;;;;;;4979793;28;20260;-85
2022/04/05 00:35:14;;;;;;;11.13;6.33;;;5.60;97.30;;;;;;4972179;28;20205;-84
2022/04/05 00:37:39;;;;;;;9.60;5.33;;;5.60;97.30;;;;;;4992191;28;20235;-86
2022/04/05 00:40:06;;;;;;;8.47;5.40;;;5.60;97.30;;;;;;4990022;28;20182;-87
2022/04/05 00:42:38;;;;;;;10.07;6.00;;;5.60;97.30;;;;;;4984365;28;20602;-86
2022/04/05 00:45:05;;;;;;;13.07;5.57;;;5.60;97.30;;;;;;5000884;28;20505;-85
2022/04/05 00:47:31;;;;;;;11.83;5.40;;;5.60;97.30;;;;;;4989310;28;20421;-85
2022/04/05 00:49:57;;;;;;;10.03;6.00;;;5.60;97.30;;;;;;4991125;28;20421;-85
2022/04/05 00:52:23;;;;;;;9.37;5.87;;;5.60;97.30;;;;;;4990114;28;20766;-86
2022/04/05 00:54:50;;;;;;;10.20;5.50;;;5.60;97.30;;;;;;4988188;28;20224;-85
2022/04/05 00:57:18;;;;;;;9.20;5.70;;;5.60;97.30;;;;;;4978770;28;20425;-87
2022/04/05 00:59:47;;;;;;;10.40;6.20;;;5.60;97.30;;;;;;4994629;28;20479;-84
2022/04/05 01:02:16;;;;;;;12.23;6.57;;;5.50;97.30;;;;;;4986501;28;20466;-86
2022/04/05 01:04:43;;;;;;;13.00;6.57;;;5.50;97.30;;;;;;4991185;28;20436;-86
2022/04/05 01:07:11;;;;;;;8.60;5.43;;;5.60;97.30;;;;;;4985312;28;20432;-87
2022/04/05 01:09:38;;;;;;;7.13;4.30;;;5.60;97.30;;;;;;4983478;28;20969;-85
2022/04/05 01:12:05;;;;;;;10.67;6.30;;;5.60;97.30;;;;;;4987365;28;20460;-84
2022/04/05 01:14:31;;;;;;;8.53;5.20;;;5.60;97.30;;;;;;4989499;28;20444;-84
2022/04/05 01:16:57;;;;;;;13.40;5.90;;;5.60;97.30;;;;;;4991131;28;20424;-86
2022/04/05 01:19:23;;;;;;;10.20;6.13;;;5.60;97.30;;;;;;4992038;28;20236;-87
2022/04/05 01:21:49;;;;;;;9.00;5.77;;;5.60;97.30;;;;;;4991044;28;20201;-86
2022/04/05 01:24:15;;;;;;;8.07;4.87;;;5.60;97.30;;;;;;4991638;28;20959;-87
2022/04/05 01:26:45;;;;;;;12.67;6.17;;;5.60;97.30;;;;;;4991898;28;20227;-85
2022/04/05 01:29:12;;;;;;;10.20;6.40;;;5.60;97.30;;;;;;4993311;28;20182;-87
2022/04/05 01:31:46;;;;;;;8.20;4.90;;;5.60;97.30;;;;;;4991600;28;20900;-87
2022/04/05 01:34:17;;;;;;;13.03;6.33;;;5.60;97.30;;;;;;4991597;28;20444;-87
2022/04/05 01:36:44;;;;;;;10.20;6.07;;;5.60;97.30;;;;;;4991528;28;20421;-86
2022/04/05 01:39:11;;;;;;;10.17;5.67;;;5.60;97.30;;;;;;4991470;28;20421;-87
2022/04/05 01:41:37;;;;;;;9.77;6.20;;;5.60;97.30;;;;;;4991569;28;20456;-85
2022/04/05 01:44:05;;;;;;;10.30;5.37;;;5.60;97.30;;;;;;4991146;28;20488;-85
2022/04/05 01:46:31;;;;;;;10.10;6.30;;;5.50;97.30;;;;;;4991176;28;20181;-86
2022/04/05 01:48:57;;;;;;;9.17;5.33;;;5.50;97.30;;;;;;4990582;28;20422;-85
2022/04/05 01:51:23;;;;;;;11.40;6.73;;;5.50;97.30;;;;;;4991120;28;20769;-86
2022/04/05 01:53:48;;;;;;;10.47;5.50;;;5.40;97.30;;;;;;4992360;28;20557;-84
2022/04/05 01:56:14;;;;;;;9.17;5.27;;;5.40;97.30;;;;;;4991154;28;20583;-85
2022/04/05 01:58:39;;;;;;;7.47;4.40;;;5.40;97.30;;;;;;4991027;28;20178;-85
2022/04/05 02:01:05;;;;;;;10.50;5.57;;;5.40;97.30;;;;;;4990856;28;20212;-84
2022/04/05 02:03:31;;;;;;;7.40;4.40;;;5.40;97.30;;;;;;4990242;28;20447;-85
2022/04/05 02:05:57;;;;;;;8.73;5.60;;;5.40;97.30;;;;;;4990369;28;20479;-85
2022/04/05 02:08:22;;;;;;;11.70;5.40;;;5.40;97.30;;;;;;4990986;28;20185;-84
2022/04/05 02:10:49;;;;;;;9.43;5.47;;;5.40;97.30;;;;;;4990436;28;20182;-84
2022/04/05 02:13:15;;;;;;;11.20;4.53;;;5.40;97.30;;;;;;4990717;28;20177;-85
2022/04/05 02:15:40;;;;;;;7.50;4.33;;;5.40;97.30;;;;;;4991705;28;20427;-85
2022/04/05 02:18:06;;;;;;;7.93;4.73;;;5.30;97.30;;;;;;4990379;28;20428;-84
2022/04/05 02:20:32;;;;;;;8.10;4.13;;;5.30;97.30;;;;;;5002921;28;20184;-84
2022/04/05 02:22:58;;;;;;;7.87;4.13;;;5.30;97.30;;;;;;4997301;28;20217;-83
2022/04/05 02:25:24;;;;;;;10.57;4.40;;;5.30;97.30;;;;;;4991365;28;20405;-83
2022/04/05 02:27:49;;;;;;;7.83;4.57;;;5.30;97.30;;;;;;4991157;28;20205;-82
2022/04/05 02:30:15;;;;;;;6.97;4.80;;;5.30;97.30;;;;;;4991898;28;20556;-83
2022/04/05 02:32:41;;;;;;;8.70;4.50;;;5.20;97.30;;;;;;4992093;28;20200;-82
2022/04/05 02:35:08;;;;;;;7.60;4.50;;;5.20;97.30;;;;;;4991567;28;20194;-84
2022/04/05 02:37:34;;;;;;;9.03;4.67;;;5.20;97.30;;;;;;4990745;28;20480;-82
2022/04/05 02:40:00;;;;;;;7.07;4.10;;;5.20;97.30;;;;;;4991502;28;20429;-83
2022/04/05 02:42:25;;;;;;;7.00;3.87;;;5.20;97.30;;;;;;4989825;28;20519;-82
2022/04/05 02:44:51;;;;;;;6.90;4.13;;;5.20;97.30;;;;;;4990047;28;20518;-83
2022/04/05 02:47:16;;;;;;;7.63;4.60;;;5.20;97.30;;;;;;4989948;28;20189;-85
2022/04/05 02:49:42;;;;;;;6.70;4.23;;;5.20;97.30;;;;;;4989627;28;20169;-84
2022/04/05 02:52:07;;;;;;;7.03;4.00;;;5.20;97.30;;;;;;4989962;28;20233;-83
2022/04/05 02:54:33;;;;;;;9.27;4.87;;;5.10;97.30;;;;;;4989739;28;20217;-84
2022/04/05 02:56:59;;;;;;;6.03;4.13;;;5.10;97.30;;;;;;4989740;28;20178;-83
2022/04/05 02:59:25;;;;;;;5.57;3.70;;;5.10;97.30;;;;;;4989345;28;20212;-84
2022/04/05 03:01:50;;;;;;;7.20;4.30;;;5.10;97.30;;;;;;4990489;28;20308;-83
2022/04/05 03:04:16;;;;;;;9.37;4.40;;;5.10;97.30;;;;;;4989486;28;20530;-83
2022/04/05 03:06:41;;;;;;;7.70;4.83;;;5.10;97.30;;;;;;4989162;28;20248;-83
2022/04/05 03:09:07;;;;;;;7.17;4.33;;;5.10;97.30;;;;;;4990182;28;20228;-84
2022/04/05 03:11:33;;;;;;;8.13;3.80;;;5.10;97.30;;;;;;4989769;28;20205;-83
2022/04/05 03:13:58;;;;;;;7.47;3.97;;;5.00;97.30;;;;;;4989380;28;20842;-84
2022/04/05 03:16:24;;;;;;;10.73;4.77;;;5.00;97.30;;;;;;4989419;28;20217;-84
2022/04/05 03:18:50;;;;;;;4.83;3.47;;;5.00;97.30;;;;;;4989480;28;20170;-85
2022/04/05 03:21:16;;;;;;;5.90;3.53;;;5.00;97.30;;;;;;4989528;28;20532;-84
2022/04/05 03:23:42;;;;;;;6.07;3.50;;;5.00;97.30;;;;;;4990471;28;20205;-84
2022/04/05 03:26:07;;;;;;;5.43;3.07;;;5.00;97.30;;;;;;4989208;28;20179;-84
2022/04/05 03:28:33;;;;;;;7.43;4.07;;;4.90;97.30;;;;;;4989447;28;20251;-86
2022/04/05 03:30:59;;;;;;;7.93;4.27;;;5.00;97.30;;;;;;4989192;28;20193;-85
2022/04/05 03:33:24;;;;;;;6.13;3.33;;;4.90;97.30;;;;;;4990988;28;20437;-84
2022/04/05 03:35:51;;;;;;;6.93;3.90;;;4.90;97.30;;;;;;4990598;28;20178;-83
2022/04/05 03:38:16;;;;;;;5.40;3.00;;;4.90;97.30;;;;;;4989926;28;20558;-83
2022/04/05 03:40:42;;;;;;;7.30;3.80;;;4.90;97.30;;;;;;4989066;28;20422;-84
2022/04/05 03:43:12;;;;;;;6.47;3.90;;;4.90;97.30;;;;;;4989031;28;20179;-84
2022/04/05 03:45:38;;;;;;;5.57;3.40;;;4.90;97.30;;;;;;4989110;28;20656;-85
2022/04/05 03:48:03;;;;;;;6.03;3.33;;;4.90;97.30;;;;;;5021987;28;20472;-85
2022/04/05 03:50:31;;;;;;;5.00;3.13;;;4.90;97.30;;;;;;4989274;28;20444;-85
2022/04/05 03:52:59;;;;;;;5.37;3.60;;;4.90;97.30;;;;;;4989426;28;20192;-84
2022/04/05 03:55:25;;;;;;;6.20;3.67;;;5.00;97.30;;;;;;4989470;28;20496;-85
2022/04/05 03:57:50;;;;;;;6.10;3.97;;;4.90;97.30;;;;;;4989239;28;20915;-85
2022/04/05 04:00:16;;;;;;;6.33;3.47;;;4.90;97.30;;;;;;4989297;28;20464;-85
2022/04/05 04:02:42;;;;;;;5.60;3.10;;;5.00;97.30;;;;;;4989336;28;20218;-83
2022/04/05 04:05:08;;;;;;;6.80;3.40;;;5.00;97.30;;;;;;4989235;28;20445;-84
2022/04/05 04:07:39;;;;;;;4.70;3.40;;;5.00;97.30;;;;;;4989283;28;20224;-84
2022/04/05 04:10:05;;;;;;;7.87;3.57;;;5.00;97.30;;;;;;4989371;28;20483;-85
2022/04/05 04:12:32;;;;;;;5.80;3.33;;;5.00;97.30;;;;;;4993932;28;20421;-84
2022/04/05 04:14:58;;;;;;;5.93;3.50;;;5.00;97.30;;;;;;4992837;28;20440;-84
2022/04/05 04:17:25;;;;;;;8.27;4.10;;;5.00;97.30;;;;;;4992907;28;20431;-84
2022/04/05 04:19:51;;;;;;;7.40;3.80;;;5.00;97.30;;;;;;4992854;28;20456;-84
2022/04/05 04:22:17;;;;;;;7.90;4.20;;;5.00;97.30;;;;;;4994570;28;21048;-85
2022/04/05 04:24:42;;;;;;;6.47;3.80;;;5.00;97.30;;;;;;4992849;28;20448;-84
2022/04/05 04:27:11;;;;;;;8.00;4.20;;;5.00;97.30;;;;;;4992473;28;20228;-85
2022/04/05 04:29:37;;;;;;;6.80;4.00;;;5.00;97.30;;;;;;4992600;28;20178;-85
2022/04/05 04:32:03;;;;;;;6.17;4.10;;;5.00;97.30;;;;;;4992488;28;20413;-85
2022/04/05 04:34:29;;;;;;;8.43;4.50;;;5.00;97.30;;;;;;4992535;28;20444;-85
2022/04/05 04:36:55;;;;;;;7.13;4.40;;;5.10;97.30;;;;;;4992133;28;20499;-84
2022/04/05 04:39:21;;;;;;;10.40;4.60;;;5.10;97.30;;;;;;4992370;28;20185;-85
2022/04/05 04:41:47;;;;;;;7.70;4.80;;;5.10;97.30;;;;;;4993599;28;20514;-85
2022/04/05 04:44:12;;;;;;;10.67;4.90;;;5.10;97.30;;;;;;4992351;28;20193;-84
2022/04/05 04:46:38;;;;;;;12.63;4.20;;;5.10;97.30;;;;;;4992386;28;20217;-85
2022/04/05 04:49:03;;;;;;;8.40;4.53;;;5.10;97.30;;;;;;4992535;28;20285;-85
2022/04/05 04:51:29;;;;;;;8.30;4.07;;;5.20;97.30;;;;;;4992098;28;20317;-86
2022/04/05 04:53:54;;;;;;;10.57;5.10;;;5.20;97.30;;;;;;4992191;28;20226;-85
2022/04/05 04:56:20;;;;;;;9.20;5.10;;;5.20;97.30;;;;;;4994309;28;20194;-83
2022/04/05 04:58:45;;;;;;;11.43;4.93;;;5.20;97.30;;;;;;4977639;28;20542;-84
2022/04/05 05:01:11;;;;;;;9.90;5.07;;;5.20;97.30;;;;;;4991460;28;20205;-84
2022/04/05 05:03:37;;;;;;;10.77;5.37;;;5.30;97.30;;;;;;4992319;28;20194;-85
2022/04/05 05:06:04;;;;;;;10.47;5.80;;;5.30;97.30;;;;;;4992424;28;20467;-85
2022/04/05 05:08:31;;;;;;;10.87;5.83;;;5.30;97.30;;;;;;4992050;28;20749;-84
2022/04/05 05:10:56;;;;;;;11.67;5.60;;;5.30;97.30;;;;;;4991922;28;20467;-84
2022/04/05 05:13:22;;;;;;;11.37;6.03;;;5.40;97.30;;;;;;4991856;28;20433;-84
2022/04/05 05:15:48;;;;;;;12.40;5.80;;;5.40;97.30;;;;;;4991860;28;20198;-84
2022/04/05 05:18:16;;;;;;;10.87;5.97;;;5.40;97.30;;;;;;4991806;28;20668;-85
2022/04/05 05:20:41;;;;;;;11.80;5.63;;;5.40;97.30;;;;;;4992739;28;20177;-84
2022/04/05 05:23:08;;;;;;;9.77;6.00;;;5.40;97.30;;;;;;4990860;28;20417;-85
2022/04/05 05:25:33;;;;;;;10.77;5.13;;;5.40;97.30;;;;;;4986907;28;20186;-84
2022/04/05 05:28:00;;;;;;;10.90;5.33;;;5.40;97.30;;;;;;4991328;28;20424;-85
2022/04/05 05:30:25;;;;;;;12.33;6.60;;;5.40;97.30;;;;;;4987984;28;20189;-86
2022/04/05 05:32:51;;;;;;;10.27;5.77;;;5.50;97.30;;;;;;4992451;28;20429;-86
2022/04/05 05:35:18;;;;;;;10.13;5.27;;;5.50;97.30;;;;;;4989847;28;20214;-85
2022/04/05 05:37:44;;;;;;;13.77;5.93;;;5.50;97.30;;;;;;4992424;28;20277;-86
2022/04/05 05:40:11;;;;;;;9.33;5.87;;;5.60;97.30;;;;;;4984534;28;21000;-85
2022/04/05 05:43:06;;;;;;;12.23;6.87;;;5.60;97.30;;;;;;5005087;28;20465;-85
2022/04/05 05:45:35;;;;;;;15.87;7.27;;;5.60;97.30;;;;;;4975313;28;20430;-85
2022/04/05 05:48:01;;;;;;;14.17;7.90;;;5.60;97.30;;;;;;4988962;28;21029;-84
2022/04/05 05:50:28;;;;;;;13.20;7.30;;;5.70;97.30;;;;;;4993128;28;20449;-85
2022/04/05 05:52:54;;;;;;;17.63;7.40;;;5.70;97.30;;;;;;4993194;28;20424;-85
2022/04/05 05:55:21;;;;;;;15.40;7.30;;;5.80;97.30;;;;;;4993745;28;20503;-86
2022/04/05 05:57:47;;;;;;;15.67;7.77;;;5.80;97.30;;;;;;4992435;28;20793;-85
2022/04/05 06:00:17;;;;;;;14.70;8.20;;;5.90;97.30;;;;;;4992663;28;20425;-85
2022/04/05 06:02:44;;;;;;;11.27;5.70;;;6.00;97.30;;;;;;4992750;28;20209;-86
2022/04/05 06:05:11;;;;;;;11.47;6.53;;;6.10;97.30;;;;;;4990883;28;20450;-86
2022/04/05 06:07:36;;;;;;;16.83;6.10;;;6.20;97.30;;;;;;4992615;28;20421;-85
2022/04/05 06:10:08;;;;;;;8.20;5.17;;;6.20;97.30;;;;;;4992969;28;20440;-84
2022/04/05 06:12:38;;;;;;;8.90;4.60;;;6.30;97.30;;;;;;4992904;28;20182;-86
2022/04/05 06:15:05;;;;;;;6.57;4.17;;;6.30;97.30;;;;;;4992397;28;20444;-85
2022/04/05 06:17:30;;;;;;;6.10;3.67;;;6.40;97.30;;;;;;4988028;28;20422;-85
2022/04/05 06:19:56;;;;;;;6.60;3.87;;;6.50;97.30;;;;;;4992031;28;20425;-85
2022/04/05 06:22:21;;;;;;;7.73;4.20;;;6.60;97.30;;;;;;4993019;28;20208;-86
2022/04/05 06:24:48;;;;;;;5.60;3.73;;;6.60;97.30;;;;;;4992007;28;20208;-85
2022/04/05 06:27:14;;;;;;;5.97;3.70;;;6.60;97.30;;;;;;4992605;28;20186;-84
2022/04/05 06:29:39;;;;;;;7.77;3.77;;;6.70;97.30;;;;;;4995533;28;20487;-87
2022/04/05 06:32:05;;;;;;;3.53;2.90;;;6.70;97.30;;;;;;4989880;28;20190;-85
2022/04/05 06:34:31;;;;;;;9.03;3.20;;;6.80;97.30;;;;;;4987340;28;20212;-85
2022/04/05 06:36:58;;;;;;;4.27;3.50;;;6.80;97.30;;;;;;4985336;28;20426;-87
2022/04/05 06:39:24;;;;;;;4.63;3.20;;;6.80;97.30;;;;;;4983406;28;20200;-85
2022/04/05 06:41:50;;;;;;;4.97;3.67;;;6.80;97.30;;;;;;4975842;28;20481;-86
2022/04/05 06:44:16;;;;;;;5.40;3.73;;;6.90;97.30;;;;;;4970914;28;20960;-86
2022/04/05 06:46:41;;;;;;;6.17;3.30;;;6.90;97.30;;;;;;4971114;28;20182;-86
2022/04/05 06:49:07;;;;;;;4.10;3.17;;;6.90;97.30;;;;;;4970676;28;20197;-86
2022/04/05 06:51:32;;;;;;;4.40;3.10;;;6.90;97.30;;;;;;4970659;28;20238;-86
2022/04/05 06:53:58;;;;;;;4.43;3.57;;;6.90;97.30;;;;;;4981790;28;20212;-86
2022/04/05 06:56:25;;;;;;;4.23;2.43;;;7.00;97.30;;;;;;4990510;28;20185;-85
2022/04/05 06:58:51;;;;;;;3.23;2.37;;;7.00;97.30;;;;;;4983247;28;20645;-86
2022/04/05 07:01:17;;;;;;;5.97;2.93;;;7.00;97.30;;;;;;4969284;28;20826;-87
2022/04/05 07:03:43;;;;;;;6.93;2.73;;;7.10;97.30;;;;;;4978781;28;20508;-88
2022/04/05 07:06:09;;;;;;;3.40;2.77;;;7.10;97.30;;;;;;4982224;28;20545;-85
2022/04/05 07:08:34;;;;;;;3.20;2.60;;;7.20;97.30;;;;;;4989194;28;20425;-87
2022/04/05 07:11:00;;;;;;;3.40;2.47;;;7.20;97.30;;;;;;4989829;28;20185;-86
2022/04/05 07:13:26;;;;;;;2.83;2.17;;;7.30;97.30;;;;;;4990456;28;20268;-86
2022/04/05 07:15:52;;;;;;;3.50;2.40;;;7.30;97.30;;;;;;4989596;28;20272;-87
2022/04/05 07:18:17;;;;;;;2.57;2.13;;;7.40;97.30;;;;;;4989855;28;20670;-85
2022/04/05 07:20:43;;;;;;;7.30;2.20;;;7.40;97.30;;;;;;4990214;28;20170;-86
2022/04/05 07:23:09;;;;;;;4.10;2.30;;;7.50;97.30;;;;;;4988842;28;20686;-86
2022/04/05 07:25:35;;;;;;;4.70;2.30;;;7.50;97.30;;;;;;4993577;28;20685;-86
2022/04/05 07:28:02;;;;;;;2.40;1.97;;;7.50;97.30;;;;;;4986196;28;20175;-85
2022/04/05 07:30:28;;;;;;;2.23;2.00;;;7.60;97.30;;;;;;4987973;28;20431;-86
2022/04/05 07:32:54;;;;;;;2.23;1.90;;;7.60;97.30;;;;;;4989456;28;20768;-87
2022/04/05 07:35:20;;;;;;;2.40;1.97;;;7.60;97.30;;;;;;4987114;28;20456;-86
2022/04/05 07:37:46;;;;;;;3.43;2.00;;;7.60;97.30;;;;;;4989408;28;20646;-85
2022/04/05 07:40:12;;;;;;;2.33;1.80;;;7.70;97.30;;;;;;4990776;28;20683;-86
2022/04/05 07:42:39;;;;;;;2.20;1.83;;;7.80;97.30;;;;;;4989219;28;20453;-86
2022/04/05 07:45:06;;;;;;;1.87;1.70;;;7.90;97.30;;;;;;4990519;28;20472;-86
2022/04/05 07:47:32;;;;;;;2.13;2.00;;;8.00;97.30;;;;;;4995757;28;21054;-85
2022/04/05 07:49:58;;;;;;;2.53;1.80;;;8.00;97.30;;;;;;4993489;28;20418;-86
2022/04/05 07:52:23;;;;;;;2.33;1.80;;;8.00;97.30;;;;;;4994274;28;20631;-86
2022/04/05 07:54:49;;;;;;;2.23;1.50;;;8.00;97.30;;;;;;4993017;28;20205;-84
2022/04/05 07:57:15;;;;;;;2.43;2.27;;;8.00;97.30;;;;;;5004493;28;20181;-85
2022/04/05 07:59:41;;;;;;;2.60;2.13;;;8.00;97.30;;;;;;5006193;28;20178;-85
2022/04/05 08:02:06;;;;;;;2.43;1.73;;;8.00;97.30;;;;;;4995864;28;20267;-85
2022/04/05 08:04:32;;;;;;;2.60;1.90;;;8.00;97.30;;;;;;4997317;28;20432;-86
2022/04/05 08:06:58;;;;;;;2.43;2.10;;;8.00;97.30;;;;;;4990746;28;20174;-85
2022/04/05 08:09:23;;;;;;;2.77;1.93;;;7.90;97.30;;;;;;4990490;28;20182;-86
2022/04/05 08:11:49;;;;;;;5.30;1.53;;;7.70;97.30;;;;;;4994511;28;20240;-85
2022/04/05 08:14:15;;;;;;;2.10;1.80;;;7.30;97.30;;;;;;4995003;28;20300;-85
2022/04/05 08:16:41;;;;;;;5.50;2.50;;;7.10;97.30;;;;;;4991923;28;20617;-85
2022/04/05 08:19:06;;;;;;;3.60;1.60;;;6.90;97.30;;;;;;4995542;28;20210;-85
2022/04/05 08:21:33;;;;;;;3.53;2.07;;;6.70;97.30;;;;;;4987614;28;20574;-86
2022/04/05 08:23:58;;;;;;;3.60;2.17;;;6.60;97.30;;;;;;4994094;28;20251;-85
2022/04/05 08:26:24;;;;;;;3.17;1.53;;;6.50;97.30;;;;;;4996986;28;20412;-85
2022/04/05 08:28:50;;;;;;;4.83;2.20;;;6.50;97.30;;;;;;4992928;28;20413;-85
2022/04/05 08:31:18;;;;;;;4.47;2.20;;;6.40;97.30;;;;;;4996191;28;20170;-85
2022/04/05 08:33:44;;;;;;;4.33;1.80;;;6.40;97.30;;;;;;4996034;28;20203;-85
2022/04/05 08:36:10;;;;;;;5.03;2.40;;;6.40;97.30;;;;;;5015933;28;20507;-84
2022/04/05 08:38:36;;;;;;;10.77;2.57;;;6.40;97.30;;;;;;5017796;28;20419;-84
2022/04/05 08:41:03;;;;;;;3.27;2.30;;;6.40;97.30;;;;;;5016844;28;20219;-85
2022/04/05 08:43:29;;;;;;;4.47;3.03;;;6.40;97.30;;;;;;5016932;28;20479;-85
2022/04/05 08:45:59;;;;;;;8.33;2.83;;;6.40;97.30;;;;;;5016213;28;20477;-84
2022/04/05 08:48:27;;;;;;;9.20;5.23;;;6.50;97.30;;;;;;5016862;28;20450;-84
2022/04/05 08:50:54;;;;;;;10.47;3.10;;;6.50;97.30;;;;;;5017173;28;20460;-84
2022/04/05 08:53:20;;;;;;;4.77;2.97;;;6.60;97.30;;;;;;5018578;28;20439;-84
2022/04/05 08:55:45;;;;;;;8.20;2.43;;;6.70;97.30;;;;;;5016291;28;20415;-85
2022/04/05 08:58:13;;;;;;;9.43;2.80;;;6.70;97.30;;;;;;5014314;28;20197;-84
2022/04/05 09:00:39;;;;;;;14.07;3.00;;;6.80;97.30;;;;;;5013837;28;20492;-85
2022/04/05 09:03:05;;;;;;;6.07;2.67;;;6.90;97.30;;;;;;4996781;28;20468;-85
2022/04/05 09:05:33;;;;;;;4.10;2.80;;;6.90;97.30;;;;;;4993541;28;20425;-85
2022/04/05 09:08:19;;;;;;;9.77;3.33;;;6.80;97.30;;;;;;4993369;28;20460;-85
2022/04/05 09:10:53;;;;;;;4.40;2.33;;;6.80;97.30;;;;;;4988645;28;20426;-87
2022/04/05 09:13:25;;;;;;;11.73;3.03;;;6.80;97.30;;;;;;4990673;28;20436;-88
2022/04/05 09:15:53;;;;;;;8.30;3.23;;;6.80;97.30;;;;;;4991891;28;20802;-87
2022/04/05 09:18:44;;;;;;;8.27;3.73;;;6.80;97.30;;;;;;4988752;28;20430;-86
2022/04/05 09:21:11;;;;;;;6.60;4.43;;;6.80;97.30;;;;;;4973986;28;20940;-87
2022/04/05 09:23:41;;;;;;;7.37;3.20;;;6.80;97.30;;;;;;4987152;28;21056;-87
2022/04/05 09:26:14;;;;;;;4.57;2.83;;;6.80;97.30;;;;;;4988178;28;20452;-86
2022/04/05 09:28:43;;;;;;;7.37;3.20;;;6.90;97.30;;;;;;4982447;28;20803;-87
2022/04/05 09:31:21;;;;;;;5.57;3.20;;;7.00;97.30;;;;;;4991073;28;20831;-87
2022/04/05 09:34:13;;;;;;;16.17;3.90;;;7.00;97.30;;;;;;4990731;28;20444;-87
2022/04/05 09:36:48;;;;;;;8.23;3.07;;;7.00;97.30;;;;;;4991067;28;20524;-87
2022/04/05 09:39:25;;;;;;;6.93;3.37;;;7.00;97.30;;;;;;4991101;28;20484;-87
2022/04/05 09:42:01;;;;;;;9.77;3.20;;;7.00;97.30;;;;;;4989560;28;21207;-87
2022/04/05 09:44:33;;;;;;;5.93;3.30;;;7.00;97.30;;;;;;4990362;28;20464;-86
2022/04/05 09:47:06;;;;;;;4.93;3.00;;;7.10;97.30;;;;;;4987879;28;20435;-88
2022/04/05 09:49:35;;;;;;;8.37;3.03;;;7.10;97.30;;;;;;4989479;28;20416;-87
2022/04/05 09:52:01;;;;;;;6.30;3.37;;;7.00;97.30;;;;;;4990083;28;21263;-87
2022/04/05 09:54:28;;;;;;;16.90;3.80;;;7.00;97.30;;;;;;4989987;28;20472;-87
2022/04/05 09:57:06;;;;;;;10.30;4.03;;;7.00;97.30;;;;;;4988534;28;20947;-87
2022/04/05 09:59:43;;;;;;;6.30;3.00;;;7.00;97.30;;;;;;4990573;28;20417;-88
2022/04/05 10:02:12;;;;;;;11.20;4.20;;;7.00;97.30;;;;;;4987552;28;20978;-88
2022/04/05 10:05:01;;;;;;;11.40;2.80;;;7.00;97.30;;;;;;4991892;28;20457;-87
2022/04/05 10:07:28;;;;;;;5.13;2.90;;;7.00;97.30;;;;;;4991533;28;20489;-87
2022/04/05 10:09:54;;;;;;;5.40;2.37;;;7.20;97.30;;;;;;4988027;28;20895;-87
2022/04/05 10:12:21;;;;;;;9.80;2.60;;;7.30;97.30;;;;;;4989067;28;20479;-87
2022/04/05 10:14:46;;;;;;;6.33;2.90;;;7.50;97.30;;;;;;4986704;28;20232;-88
2022/04/05 10:17:13;;;;;;;10.13;3.13;;;7.80;97.30;;;;;;4989521;28;20464;-87
2022/04/05 10:19:44;;;;;;;4.77;2.80;;;8.00;97.30;;;;;;4989793;28;20197;-88
2022/04/05 10:22:11;;;;;;;6.63;4.10;;;8.20;97.30;;;;;;4989202;28;20457;-88
2022/04/05 10:24:38;;;;;;;4.23;2.60;;;8.40;97.30;;;;;;4987129;28;20444;-88
2022/04/05 10:27:06;;;;;;;4.53;2.43;;;8.50;97.30;;;;;;4991720;28;20429;-88
2022/04/05 10:29:32;;;;;;;8.03;3.10;;;8.60;97.30;;;;;;4990257;28;20497;-88
2022/04/05 10:32:10;;;;;;;9.57;2.90;;;8.60;97.30;;;;;;4987430;28;20437;-88
2022/04/05 10:34:46;;;;;;;5.63;2.70;;;8.70;97.30;;;;;;4987504;28;20792;-88
2022/04/05 10:37:28;;;;;;;4.80;2.57;;;8.90;97.30;;;;;;4976600;28;20450;-87
2022/04/05 10:40:16;;;;;;;11.53;3.17;;;9.10;97.30;;;;;;4968664;28;20429;-88
2022/04/05 10:42:46;;;;;;;6.10;2.90;;;9.20;97.30;;;;;;4984353;28;20469;-88
2022/04/05 10:45:18;;;;;;;10.50;3.30;;;9.40;97.30;;;;;;4988519;28;20790;-87
2022/04/05 10:47:59;;;;;;;10.30;3.37;;;9.50;97.30;;;;;;4988217;28;20689;-86
2022/04/05 10:50:26;;;;;;;8.13;3.50;;;9.50;97.30;;;;;;4989637;28;20452;-87
2022/04/05 10:53:11;;;;;;;8.63;3.40;;;9.60;97.30;;;;;;4989733;28;20984;-88
2022/04/05 10:56:05;;;;;;;5.13;3.43;;;9.60;97.30;;;;;;4989161;28;20429;-87
2022/04/05 10:58:34;;;;;;;5.67;3.40;;;9.70;97.30;;;;;;4989813;28;20427;-88
2022/04/05 11:01:12;;;;;;;8.37;3.53;;;9.80;97.30;;;;;;4990835;28;20500;-88
2022/04/05 11:03:38;;;;;;;10.10;3.87;;;9.90;97.30;;;;;;4989836;28;20447;-87
2022/04/05 11:06:04;;;;;;;7.00;3.57;;;9.90;97.30;;;;;;4989380;28;20421;-87
2022/04/05 11:08:31;;;;;;;6.83;3.20;;;10.00;97.30;;;;;;4989884;28;20977;-87
2022/04/05 11:11:00;;;;;;;10.43;4.00;;;10.00;97.30;;;;;;4989206;28;20213;-88
2022/04/05 11:13:42;;;;;;;6.97;4.23;;;10.00;97.30;;;;;;4989269;28;20432;-87
2022/04/05 11:16:13;;;;;;;9.73;3.73;;;10.00;97.30;;;;;;4989557;28;20846;-87
2022/04/05 11:18:40;;;;;;;9.33;3.80;;;10.00;97.30;;;;;;4989489;28;20452;-87
2022/04/05 11:21:08;;;;;;;18.23;5.60;;;10.00;97.30;;;;;;4988599;28;20467;-87
2022/04/05 11:23:47;;;;;;;10.27;3.97;;;10.00;97.30;;;;;;4990417;28;20531;-87
2022/04/05 11:26:48;;;;;;;6.80;3.10;;;9.90;97.30;;;;;;4989475;28;20476;-87
2022/04/05 11:29:21;;;;;;;5.60;3.03;;;9.70;97.30;;;;;;4910778;29;20970;-87
2022/04/05 11:31:48;;;;;;;5.70;3.13;;;9.60;97.30;;;;;;4957565;28;20422;-87
2022/04/05 11:34:34;;;;;;;6.33;3.50;;;9.50;97.30;;;;;;4969760;28;20485;-87
2022/04/05 11:37:00;;;;;;;5.70;3.80;;;9.40;97.30;;;;;;4969440;28;20476;-87
2022/04/05 11:39:25;;;;;;;7.30;3.43;;;9.20;97.30;;;;;;4969690;28;20693;-87
2022/04/05 11:42:01;;;;;;;4.63;3.40;;;9.20;97.30;;;;;;4969431;28;20210;-87
2022/04/05 11:44:27;;;;;;;5.60;3.87;;;9.20;97.30;;;;;;4969635;28;20608;-87
2022/04/05 11:46:57;;;;;;;6.90;3.80;;;9.10;97.30;;;;;;4969732;28;20426;-86
2022/04/05 11:49:23;;;;;;;8.63;3.47;;;9.10;97.30;;;;;;4969798;28;20927;-87
2022/04/05 11:51:49;;;;;;;6.00;3.23;;;9.10;97.30;;;;;;4986388;28;20469;-87
2022/04/05 11:54:23;;;;;;;7.37;3.97;;;9.20;97.30;;;;;;4989293;28;20784;-87
2022/04/05 11:56:49;;;;;;;5.50;3.20;;;9.30;97.30;;;;;;4989378;28;20444;-87
2022/04/05 11:59:17;;;;;;;5.83;3.00;;;9.40;97.30;;;;;;4988937;28;20423;-87
2022/04/05 12:01:49;;;;;;;6.70;4.00;;;9.40;97.30;;;;;;4988724;28;20461;-87
2022/04/05 12:04:17;;;;;;;6.97;3.23;;;9.50;97.30;;;;;;4990434;28;20806;-87
2022/04/05 12:06:45;;;;;;;5.30;3.10;;;9.50;97.30;;;;;;4988999;28;20437;-87
2022/04/05 12:09:12;;;;;;;4.40;2.90;;;9.60;97.30;;;;;;4989071;28;20431;-87
2022/04/05 12:11:40;;;;;;;12.83;3.10;;;9.60;97.30;;;;;;4990583;28;20421;-88
2022/04/05 12:14:11;;;;;;;5.17;3.20;;;9.60;97.30;;;;;;4985986;28;20456;-87
2022/04/05 12:16:50;;;;;;;5.27;2.80;;;9.60;97.30;;;;;;4988545;28;20448;-88
2022/04/05 12:19:32;;;;;;;7.70;3.57;;;9.50;97.30;;;;;;4988667;28;20428;-87
2022/04/05 12:22:02;;;;;;;3.53;2.73;;;9.50;97.30;;;;;;4988197;28;20511;-88
2022/04/05 12:24:29;;;;;;;2.67;2.07;;;9.40;97.30;;;;;;4988656;28;20544;-87
2022/04/05 12:26:58;;;;;;;5.17;2.60;;;9.40;97.30;;;;;;4988681;28;20464;-87
2022/04/05 12:29:26;;;;;;;3.97;2.70;;;9.30;97.30;;;;;;4989205;28;20471;-88
2022/04/05 12:31:53;;;;;;;4.53;2.73;;;9.30;97.30;;;;;;4988846;28;20413;-88
2022/04/05 12:34:20;;;;;;;3.07;2.30;;;9.50;97.30;;;;;;4992568;28;20523;-88
2022/04/05 12:36:56;;;;;;;7.60;2.80;;;9.50;97.30;;;;;;4991593;28;20516;-88
2022/04/05 12:39:30;;;;;;;4.50;3.10;;;9.60;97.30;;;;;;4992686;28;20515;-88
2022/04/05 12:41:59;;;;;;;3.63;2.60;;;9.70;97.30;;;;;;4992087;28;20487;-86
2022/04/05 12:44:30;;;;;;;3.80;2.70;;;9.70;97.30;;;;;;4994265;28;20974;-88
2022/04/05 12:46:58;;;;;;;4.17;2.87;;;9.80;97.30;;;;;;5011853;28;20431;-89
2022/04/05 12:49:37;;;;;;;3.20;2.33;;;9.70;97.30;;;;;;5011955;28;20428;-87
2022/04/05 12:52:13;;;;;;;5.00;2.70;;;9.60;97.30;;;;;;4992923;28;20460;-87
2022/04/05 12:55:02;;;;;;;2.77;2.20;;;9.50;97.30;;;;;;5007754;28;20448;-87
2022/04/05 12:57:32;;;;;;;7.00;3.00;;;9.50;97.30;;;;;;5007348;28;20424;-88
2022/04/05 13:00:15;;;;;;;3.10;2.43;;;9.50;97.30;;;;;;4986711;28;20757;-88